sensor_id;sensor_type;location;lat;lon;timestamp;pressure;altitude;pressure_sealevel;temperature;humidity
9187;BME280;7273;48.902;9.410;2023-07-02T00:00:10;97440.03;;;17.22;69.89
9187;BME280;7273;48.902;9.410;2023-07-02T00:02:36;97442.78;;;17.22;69.85
9187;BME280;7273;48.902;9.410;2023-07-02T00:05:03;97443.59;;;17.22;70.02
9187;BME280;7273;48.902;9.410;2023-07-02T00:07:28;97451.09;;;17.25;69.82
9187;BME280;7273;48.902;9.410;2023-07-02T00:09:54;97455.47;;;17.26;70.10
9187;BME280;7273;48.902;9.410;2023-07-02T00:12:20;97450.00;;;17.26;70.32
9187;BME280;7273;48.902;9.410;2023-07-02T00:14:46;97455.91;;;17.28;70.31
9187;BME280;7273;48.902;9.410;2023-07-02T00:17:11;97445.78;;;17.29;70.37
9187;BME280;7273;48.902;9.410;2023-07-02T00:19:39;97446.25;;;17.31;70.39
9187;BME280;7273;48.902;9.410;2023-07-02T00:22:12;97441.94;;;17.30;70.29
9187;BME280;7273;48.902;9.410;2023-07-02T00:24:37;97441.13;;;17.29;70.26
9187;BME280;7273;48.902;9.410;2023-07-02T00:27:03;97448.97;;;17.31;70.28
9187;BME280;7273;48.902;9.410;2023-07-02T00:29:29;97453.97;;;17.29;70.46
9187;BME280;7273;48.902;9.410;2023-07-02T00:31:55;97453.16;;;17.28;70.33
9187;BME280;7273;48.902;9.410;2023-07-02T00:34:20;97445.66;;;17.25;70.28
9187;BME280;7273;48.902;9.410;2023-07-02T00:36:46;97453.84;;;17.25;70.13
9187;BME280;7273;48.902;9.410;2023-07-02T00:39:12;97451.31;;;17.20;70.43
9187;BME280;7273;48.902;9.410;2023-07-02T00:41:38;97449.72;;;17.19;70.77
9187;BME280;7273;48.902;9.410;2023-07-02T00:44:04;97446.66;;;17.21;70.35
9187;BME280;7273;48.902;9.410;2023-07-02T00:46:30;97443.66;;;17.14;70.33
9187;BME280;7273;48.902;9.410;2023-07-02T00:48:56;97448.44;;;17.17;70.19
9187;BME280;7273;48.902;9.410;2023-07-02T00:51:24;97452.78;;;17.18;70.11
9187;BME280;7273;48.902;9.410;2023-07-02T00:53:52;97450.06;;;17.18;70.39
9187;BME280;7273;48.902;9.410;2023-07-02T00:56:18;97453.00;;;17.13;70.75
9187;BME280;7273;48.902;9.410;2023-07-02T00:58:46;97463.59;;;17.14;70.48
9187;BME280;7273;48.902;9.410;2023-07-02T01:01:20;97468.56;;;17.12;71.18
9187;BME280;7273;48.902;9.410;2023-07-02T01:03:51;97458.78;;;17.11;71.23
9187;BME280;7273;48.902;9.410;2023-07-02T01:06:19;97456.25;;;17.06;71.94
9187;BME280;7273;48.902;9.410;2023-07-02T01:09:11;97455.09;;;17.07;71.67
9187;BME280;7273;48.902;9.410;2023-07-02T01:11:40;97450.94;;;17.10;71.60
9187;BME280;7273;48.902;9.410;2023-07-02T01:16:54;97448.97;;;17.10;71.61
9187;BME280;7273;48.902;9.410;2023-07-02T01:19:46;97445.59;;;17.13;72.84
9187;BME280;7273;48.902;9.410;2023-07-02T01:22:21;97450.25;;;17.13;71.95
9187;BME280;7273;48.902;9.410;2023-07-02T01:24:48;97448.91;;;17.19;70.98
9187;BME280;7273;48.902;9.410;2023-07-02T01:27:15;97448.34;;;17.13;71.23
9187;BME280;7273;48.902;9.410;2023-07-02T01:29:41;97444.13;;;17.16;71.40
9187;BME280;7273;48.902;9.410;2023-07-02T01:32:07;97451.50;;;17.15;71.00
9187;BME280;7273;48.902;9.410;2023-07-02T01:34:34;97439.00;;;17.14;70.94
9187;BME280;7273;48.902;9.410;2023-07-02T01:37:00;97449.25;;;17.17;70.69
9187;BME280;7273;48.902;9.410;2023-07-02T01:39:26;97448.44;;;17.17;70.72
9187;BME280;7273;48.902;9.410;2023-07-02T01:41:53;97453.47;;;17.15;70.95
9187;BME280;7273;48.902;9.410;2023-07-02T01:44:19;97457.78;;;17.16;75.82
9187;BME280;7273;48.902;9.410;2023-07-02T01:46:46;97456.06;;;17.11;71.49
9187;BME280;7273;48.902;9.410;2023-07-02T01:49:18;97456.38;;;17.10;71.11
9187;BME280;7273;48.902;9.410;2023-07-02T01:51:54;97451.59;;;17.07;71.50
9187;BME280;7273;48.902;9.410;2023-07-02T01:54:22;97458.03;;;17.02;70.94
9187;BME280;7273;48.902;9.410;2023-07-02T01:56:47;97459.50;;;17.00;70.87
9187;BME280;7273;48.902;9.410;2023-07-02T01:59:13;97458.72;;;16.99;70.79
9187;BME280;7273;48.902;9.410;2023-07-02T02:01:39;97470.31;;;16.96;70.63
9187;BME280;7273;48.902;9.410;2023-07-02T02:04:07;97454.72;;;16.97;70.68
9187;BME280;7273;48.902;9.410;2023-07-02T02:06:33;97449.44;;;16.92;71.42
9187;BME280;7273;48.902;9.410;2023-07-02T02:08:59;97456.84;;;16.91;71.33
9187;BME280;7273;48.902;9.410;2023-07-02T02:11:24;97444.19;;;16.87;71.18
9187;BME280;7273;48.902;9.410;2023-07-02T02:13:50;97450.91;;;16.89;71.32
9187;BME280;7273;48.902;9.410;2023-07-02T02:16:16;97447.53;;;16.92;71.32
9187;BME280;7273;48.902;9.410;2023-07-02T02:18:41;97457.31;;;16.93;71.29
9187;BME280;7273;48.902;9.410;2023-07-02T02:21:07;97460.03;;;16.93;71.33
9187;BME280;7273;48.902;9.410;2023-07-02T02:23:32;97457.31;;;16.93;71.30
9187;BME280;7273;48.902;9.410;2023-07-02T02:25:57;97465.38;;;16.90;71.46
9187;BME280;7273;48.902;9.410;2023-07-02T02:28:23;97471.31;;;16.92;71.30
9187;BME280;7273;48.902;9.410;2023-07-02T02:30:48;97472.41;;;16.91;71.66
9187;BME280;7273;48.902;9.410;2023-07-02T02:33:14;97467.63;;;16.88;71.70
9187;BME280;7273;48.902;9.410;2023-07-02T02:35:39;97473.41;;;16.86;71.43
9187;BME280;7273;48.902;9.410;2023-07-02T02:38:04;97481.63;;;16.86;71.62
9187;BME280;7273;48.902;9.410;2023-07-02T02:40:30;97476.47;;;16.85;71.23
9187;BME280;7273;48.902;9.410;2023-07-02T02:42:55;97467.81;;;16.83;71.22
9187;BME280;7273;48.902;9.410;2023-07-02T02:45:21;97467.16;;;16.86;71.02
9187;BME280;7273;48.902;9.410;2023-07-02T02:47:47;97464.63;;;16.81;71.31
9187;BME280;7273;48.902;9.410;2023-07-02T02:50:13;97470.22;;;16.84;71.19
9187;BME280;7273;48.902;9.410;2023-07-02T02:52:38;97460.75;;;16.82;71.47
9187;BME280;7273;48.902;9.410;2023-07-02T02:55:05;97465.41;;;16.81;71.86
9187;BME280;7273;48.902;9.410;2023-07-02T02:57:31;97464.75;;;16.84;71.38
9187;BME280;7273;48.902;9.410;2023-07-02T02:59:57;97466.38;;;16.85;71.36
9187;BME280;7273;48.902;9.410;2023-07-02T03:02:22;97475.69;;;16.84;71.68
9187;BME280;7273;48.902;9.410;2023-07-02T03:04:47;97469.25;;;16.89;71.64
9187;BME280;7273;48.902;9.410;2023-07-02T03:07:14;97462.16;;;16.88;71.62
9187;BME280;7273;48.902;9.410;2023-07-02T03:09:40;97471.97;;;16.89;71.84
9187;BME280;7273;48.902;9.410;2023-07-02T03:12:06;97485.78;;;16.92;71.48
9187;BME280;7273;48.902;9.410;2023-07-02T03:14:31;97483.50;;;16.94;71.29
9187;BME280;7273;48.902;9.410;2023-07-02T03:16:57;97485.78;;;16.92;71.88
9187;BME280;7273;48.902;9.410;2023-07-02T03:19:22;97486.56;;;16.93;71.81
9187;BME280;7273;48.902;9.410;2023-07-02T03:21:48;97484.63;;;16.93;71.78
9187;BME280;7273;48.902;9.410;2023-07-02T03:24:13;97491.34;;;16.96;71.72
9187;BME280;7273;48.902;9.410;2023-07-02T03:26:45;97504.09;;;16.92;72.70
9187;BME280;7273;48.902;9.410;2023-07-02T03:29:11;97507.47;;;16.89;72.35
9187;BME280;7273;48.902;9.410;2023-07-02T03:31:37;97519.03;;;16.86;72.45
9187;BME280;7273;48.902;9.410;2023-07-02T03:34:05;97516.91;;;16.71;72.62
9187;BME280;7273;48.902;9.410;2023-07-02T03:36:31;97527.19;;;16.65;76.30
9187;BME280;7273;48.902;9.410;2023-07-02T03:38:56;97529.97;;;16.57;72.70
9187;BME280;7273;48.902;9.410;2023-07-02T03:41:21;97535.28;;;16.53;72.00
9187;BME280;7273;48.902;9.410;2023-07-02T03:43:47;97536.06;;;16.54;71.88
9187;BME280;7273;48.902;9.410;2023-07-02T03:46:13;97533.84;;;16.47;71.91
9187;BME280;7273;48.902;9.410;2023-07-02T03:48:39;97539.94;;;16.44;72.11
9187;BME280;7273;48.902;9.410;2023-07-02T03:51:04;97535.28;;;16.45;72.00
9187;BME280;7273;48.902;9.410;2023-07-02T03:53:29;97550.38;;;16.42;72.05
9187;BME280;7273;48.902;9.410;2023-07-02T03:55:55;97551.22;;;16.34;72.79
9187;BME280;7273;48.902;9.410;2023-07-02T03:58:20;97557.31;;;16.31;73.20
9187;BME280;7273;48.902;9.410;2023-07-02T04:00:46;97565.50;;;16.31;72.86
9187;BME280;7273;48.902;9.410;2023-07-02T04:03:15;97562.97;;;16.26;72.99
9187;BME280;7273;48.902;9.410;2023-07-02T04:05:40;97558.81;;;16.20;73.76
9187;BME280;7273;48.902;9.410;2023-07-02T04:08:06;97565.84;;;16.21;72.92
9187;BME280;7273;48.902;9.410;2023-07-02T04:10:31;97563.47;;;16.20;73.53
9187;BME280;7273;48.902;9.410;2023-07-02T04:12:56;97573.09;;;16.17;73.63
9187;BME280;7273;48.902;9.410;2023-07-02T04:15:22;97573.41;;;16.15;73.26
9187;BME280;7273;48.902;9.410;2023-07-02T04:17:49;97582.25;;;16.12;73.10
9187;BME280;7273;48.902;9.410;2023-07-02T04:20:14;97575.03;;;16.08;73.44
9187;BME280;7273;48.902;9.410;2023-07-02T04:22:40;97581.94;;;16.05;73.80
9187;BME280;7273;48.902;9.410;2023-07-02T04:25:06;97572.78;;;16.10;73.00
9187;BME280;7273;48.902;9.410;2023-07-02T04:27:31;97571.81;;;16.06;73.51
9187;BME280;7273;48.902;9.410;2023-07-02T04:29:57;97581.78;;;16.02;73.59
9187;BME280;7273;48.902;9.410;2023-07-02T04:32:22;97578.41;;;16.05;72.70
9187;BME280;7273;48.902;9.410;2023-07-02T04:34:47;97585.78;;;16.04;72.60
9187;BME280;7273;48.902;9.410;2023-07-02T04:37:13;97583.72;;;16.01;73.17
9187;BME280;7273;48.902;9.410;2023-07-02T04:39:40;97581.13;;;16.05;72.69
9187;BME280;7273;48.902;9.410;2023-07-02T04:42:06;97573.59;;;16.02;72.57
9187;BME280;7273;48.902;9.410;2023-07-02T04:44:31;97575.69;;;16.05;72.60
9187;BME280;7273;48.902;9.410;2023-07-02T04:47:00;97584.53;;;16.02;72.60
9187;BME280;7273;48.902;9.410;2023-07-02T04:49:26;97592.22;;;16.00;72.15
9187;BME280;7273;48.902;9.410;2023-07-02T04:51:51;97585.63;;;16.01;71.94
9187;BME280;7273;48.902;9.410;2023-07-02T04:54:21;97583.22;;;15.99;71.69
9187;BME280;7273;48.902;9.410;2023-07-02T04:56:47;97590.75;;;16.02;75.58
9187;BME280;7273;48.902;9.410;2023-07-02T04:59:13;97586.28;;;15.98;72.74
9187;BME280;7273;48.902;9.410;2023-07-02T05:01:39;97607.44;;;16.01;72.26
9187;BME280;7273;48.902;9.410;2023-07-02T05:04:05;97608.59;;;16.00;71.84
9187;BME280;7273;48.902;9.410;2023-07-02T05:06:31;97607.44;;;16.01;72.11
9187;BME280;7273;48.902;9.410;2023-07-02T05:08:56;97613.22;;;15.99;72.08
9187;BME280;7273;48.902;9.410;2023-07-02T05:11:21;97612.44;;;15.99;72.25
9187;BME280;7273;48.902;9.410;2023-07-02T05:13:47;97614.38;;;15.98;72.68
9187;BME280;7273;48.902;9.410;2023-07-02T05:16:12;97607.44;;;16.01;72.50
9187;BME280;7273;48.902;9.410;2023-07-02T05:18:38;97601.81;;;16.06;72.05
9187;BME280;7273;48.902;9.410;2023-07-02T05:21:04;97614.66;;;16.14;71.65
9187;BME280;7273;48.902;9.410;2023-07-02T05:23:29;97611.31;;;16.17;71.63
9187;BME280;7273;48.902;9.410;2023-07-02T05:25:54;97617.06;;;16.15;72.72
9187;BME280;7273;48.902;9.410;2023-07-02T05:28:20;97622.22;;;16.17;71.98
9187;BME280;7273;48.902;9.410;2023-07-02T05:30:46;97625.06;;;16.29;71.35
9187;BME280;7273;48.902;9.410;2023-07-02T05:33:12;97629.72;;;16.37;71.29
9187;BME280;7273;48.902;9.410;2023-07-02T05:35:38;97627.81;;;16.46;71.30
9187;BME280;7273;48.902;9.410;2023-07-02T05:38:03;97618.16;;;16.49;71.42
9187;BME280;7273;48.902;9.410;2023-07-02T05:40:29;97625.53;;;16.48;72.30
9187;BME280;7273;48.902;9.410;2023-07-02T05:42:54;97630.53;;;16.55;71.59
9187;BME280;7273;48.902;9.410;2023-07-02T05:45:19;97630.66;;;16.58;71.32
9187;BME280;7273;48.902;9.410;2023-07-02T05:47:45;97630.97;;;16.57;70.98
9187;BME280;7273;48.902;9.410;2023-07-02T05:50:10;97630.47;;;16.63;70.56
9187;BME280;7273;48.902;9.410;2023-07-02T05:52:35;97644.28;;;16.67;70.59
9187;BME280;7273;48.902;9.410;2023-07-02T05:55:01;97643.63;;;16.70;70.79
9187;BME280;7273;48.902;9.410;2023-07-02T05:57:26;97642.19;;;16.72;70.94
9187;BME280;7273;48.902;9.410;2023-07-02T05:59:51;97649.56;;;16.80;71.14
9187;BME280;7273;48.902;9.410;2023-07-02T06:02:17;97646.97;;;16.84;71.05
9187;BME280;7273;48.902;9.410;2023-07-02T06:04:42;97652.59;;;16.87;71.59
9187;BME280;7273;48.902;9.410;2023-07-02T06:07:07;97649.19;;;16.90;71.30
9187;BME280;7273;48.902;9.410;2023-07-02T06:09:33;97652.09;;;16.94;71.74
9187;BME280;7273;48.902;9.410;2023-07-02T06:11:58;97652.03;;;17.02;71.57
9187;BME280;7273;48.902;9.410;2023-07-02T06:14:24;97654.75;;;17.02;71.82
9187;BME280;7273;48.902;9.410;2023-07-02T06:16:51;97656.97;;;17.09;71.51
9187;BME280;7273;48.902;9.410;2023-07-02T06:19:17;97653.28;;;17.13;71.41
9187;BME280;7273;48.902;9.410;2023-07-02T06:21:42;97651.47;;;17.17;71.11
9187;BME280;7273;48.902;9.410;2023-07-02T06:24:07;97656.56;;;17.27;70.61
9187;BME280;7273;48.902;9.410;2023-07-02T06:26:33;97652.84;;;17.32;70.74
9187;BME280;7273;48.902;9.410;2023-07-02T06:28:58;97657.66;;;17.35;70.51
9187;BME280;7273;48.902;9.410;2023-07-02T06:31:24;97658.94;;;17.37;70.23
9187;BME280;7273;48.902;9.410;2023-07-02T06:33:49;97660.53;;;17.38;70.07
9187;BME280;7273;48.902;9.410;2023-07-02T06:36:15;97651.66;;;17.50;69.80
9187;BME280;7273;48.902;9.410;2023-07-02T06:38:40;97655.19;;;17.51;69.76
9187;BME280;7273;48.902;9.410;2023-07-02T06:41:06;97667.91;;;17.47;69.58
9187;BME280;7273;48.902;9.410;2023-07-02T06:43:31;97651.75;;;17.62;69.43
9187;BME280;7273;48.902;9.410;2023-07-02T06:45:57;97665.09;;;17.64;69.36
9187;BME280;7273;48.902;9.410;2023-07-02T06:48:22;97664.03;;;17.56;69.35
9187;BME280;7273;48.902;9.410;2023-07-02T06:50:47;97672.97;;;17.65;69.11
9187;BME280;7273;48.902;9.410;2023-07-02T06:53:13;97672.44;;;17.72;68.94
9187;BME280;7273;48.902;9.410;2023-07-02T06:55:39;97667.09;;;17.75;68.67
9187;BME280;7273;48.902;9.410;2023-07-02T06:58:07;97665.97;;;17.76;68.50
9187;BME280;7273;48.902;9.410;2023-07-02T07:00:33;97670.38;;;17.89;68.54
9187;BME280;7273;48.902;9.410;2023-07-02T07:03:05;97669.41;;;17.94;68.57
9187;BME280;7273;48.902;9.410;2023-07-02T07:05:31;97665.66;;;17.98;68.41
9187;BME280;7273;48.902;9.410;2023-07-02T07:07:56;97665.66;;;17.98;67.98
9187;BME280;7273;48.902;9.410;2023-07-02T07:10:22;97674.34;;;18.00;67.77
9187;BME280;7273;48.902;9.410;2023-07-02T07:12:48;97666.22;;;18.04;67.97
9187;BME280;7273;48.902;9.410;2023-07-02T07:15:13;97663.50;;;18.04;67.77
9187;BME280;7273;48.902;9.410;2023-07-02T07:17:39;97660.69;;;18.12;67.73
9187;BME280;7273;48.902;9.410;2023-07-02T07:20:04;97664.84;;;18.18;67.39
9187;BME280;7273;48.902;9.410;2023-07-02T07:22:30;97663.34;;;18.41;67.31
9187;BME280;7273;48.902;9.410;2023-07-02T07:24:56;97666.03;;;18.50;66.84
9187;BME280;7273;48.902;9.410;2023-07-02T07:27:21;97670.84;;;18.32;66.79
9187;BME280;7273;48.902;9.410;2023-07-02T07:29:47;97670.84;;;18.32;66.53
9187;BME280;7273;48.902;9.410;2023-07-02T07:32:12;97663.88;;;18.35;65.58
9187;BME280;7273;48.902;9.410;2023-07-02T07:34:38;97670.28;;;18.59;66.11
9187;BME280;7273;48.902;9.410;2023-07-02T07:37:03;97669.97;;;18.73;65.40
9187;BME280;7273;48.902;9.410;2023-07-02T07:39:30;97669.84;;;18.69;65.39
9187;BME280;7273;48.902;9.410;2023-07-02T07:41:55;97676.41;;;18.77;65.55
9187;BME280;7273;48.902;9.410;2023-07-02T07:44:20;97669.59;;;18.95;64.96
9187;BME280;7273;48.902;9.410;2023-07-02T07:46:46;97669.34;;;19.12;65.15
9187;BME280;7273;48.902;9.410;2023-07-02T07:49:13;97672.09;;;19.12;65.17
9187;BME280;7273;48.902;9.410;2023-07-02T07:51:38;97682.50;;;19.07;65.28
9187;BME280;7273;48.902;9.410;2023-07-02T07:54:04;97678.72;;;18.99;65.28
9187;BME280;7273;48.902;9.410;2023-07-02T07:56:29;97673.44;;;18.94;65.11
9187;BME280;7273;48.902;9.410;2023-07-02T07:58:55;97672.97;;;18.92;65.13
9187;BME280;7273;48.902;9.410;2023-07-02T08:01:20;97670.28;;;19.16;65.25
9187;BME280;7273;48.902;9.410;2023-07-02T08:03:46;97671.53;;;19.19;64.98
9187;BME280;7273;48.902;9.410;2023-07-02T08:06:11;97670.56;;;19.35;64.92
9187;BME280;7273;48.902;9.410;2023-07-02T08:08:37;97677.72;;;19.16;64.32
9187;BME280;7273;48.902;9.410;2023-07-02T08:11:02;97668.00;;;19.06;63.57
9187;BME280;7273;48.902;9.410;2023-07-02T08:13:27;97668.81;;;19.07;63.32
9187;BME280;7273;48.902;9.410;2023-07-02T08:15:53;97681.03;;;19.21;63.54
9187;BME280;7273;48.902;9.410;2023-07-02T08:18:18;97672.56;;;19.14;63.10
9187;BME280;7273;48.902;9.410;2023-07-02T08:20:44;97685.16;;;19.27;63.47
9187;BME280;7273;48.902;9.410;2023-07-02T08:23:09;97684.84;;;19.29;62.99
9187;BME280;7273;48.902;9.410;2023-07-02T08:25:34;97683.38;;;19.31;62.51
9187;BME280;7273;48.902;9.410;2023-07-02T08:28:00;97679.81;;;19.55;62.56
9187;BME280;7273;48.902;9.410;2023-07-02T08:30:25;97681.84;;;19.58;62.29
9187;BME280;7273;48.902;9.410;2023-07-02T08:32:51;97681.28;;;19.76;62.36
9187;BME280;7273;48.902;9.410;2023-07-02T08:35:19;97684.31;;;19.99;58.63
9187;BME280;7273;48.902;9.410;2023-07-02T08:37:44;97685.78;;;20.21;62.21
9187;BME280;7273;48.902;9.410;2023-07-02T08:40:19;97686.59;;;20.21;61.93
9187;BME280;7273;48.902;9.410;2023-07-02T08:42:45;97688.44;;;20.17;61.77
9187;BME280;7273;48.902;9.410;2023-07-02T08:45:14;97690.38;;;20.17;61.38
9187;BME280;7273;48.902;9.410;2023-07-02T08:47:40;97677.53;;;20.33;57.13
9187;BME280;7273;48.902;9.410;2023-07-02T08:50:06;97673.84;;;20.29;61.18
9187;BME280;7273;48.902;9.410;2023-07-02T08:52:31;97687.25;;;20.30;61.37
9187;BME280;7273;48.902;9.410;2023-07-02T08:54:57;97689.00;;;20.23;61.50
9187;BME280;7273;48.902;9.410;2023-07-02T08:57:22;97686.72;;;20.25;61.45
9187;BME280;7273;48.902;9.410;2023-07-02T08:59:48;97694.03;;;20.48;60.92
9187;BME280;7273;48.902;9.410;2023-07-02T09:02:14;97685.06;;;20.36;60.52
9187;BME280;7273;48.902;9.410;2023-07-02T09:04:39;97684.75;;;20.53;60.25
9187;BME280;7273;48.902;9.410;2023-07-02T09:07:10;97685.19;;;20.55;59.44
9187;BME280;7273;48.902;9.410;2023-07-02T09:09:48;97684.63;;;20.49;55.07
9187;BME280;7273;48.902;9.410;2023-07-02T09:12:30;97680.53;;;20.71;56.74
9187;BME280;7273;48.902;9.410;2023-07-02T09:15:04;97684.16;;;20.59;57.30
9187;BME280;7273;48.902;9.410;2023-07-02T09:17:40;97692.03;;;20.61;54.16
9187;BME280;7273;48.902;9.410;2023-07-02T09:20:06;97684.91;;;20.72;52.57
9187;BME280;7273;48.902;9.410;2023-07-02T09:22:35;97681.38;;;20.87;58.33
9187;BME280;7273;48.902;9.410;2023-07-02T09:25:02;97684.13;;;20.87;57.84
9187;BME280;7273;48.902;9.410;2023-07-02T09:27:41;97690.16;;;20.92;53.37
9187;BME280;7273;48.902;9.410;2023-07-02T09:30:14;97683.09;;;20.91;57.74
9187;BME280;7273;48.902;9.410;2023-07-02T09:32:42;97686.56;;;21.04;58.02
9187;BME280;7273;48.902;9.410;2023-07-02T09:35:08;97683.03;;;21.34;58.07
9187;BME280;7273;48.902;9.410;2023-07-02T09:37:34;97688.88;;;21.33;57.75
9187;BME280;7273;48.902;9.410;2023-07-02T09:40:00;97688.53;;;21.34;57.54
9187;BME280;7273;48.902;9.410;2023-07-02T09:42:28;97687.91;;;21.41;57.40
9187;BME280;7273;48.902;9.410;2023-07-02T09:45:00;97690.03;;;21.48;57.05
9187;BME280;7273;48.902;9.410;2023-07-02T09:47:27;97690.50;;;21.65;57.27
9187;BME280;7273;48.902;9.410;2023-07-02T09:49:58;97687.56;;;21.58;56.49
9187;BME280;7273;48.902;9.410;2023-07-02T09:52:25;97679.38;;;21.62;56.72
9187;BME280;7273;48.902;9.410;2023-07-02T09:54:51;97676.44;;;21.86;57.11
9187;BME280;7273;48.902;9.410;2023-07-02T09:57:16;97688.94;;;21.99;56.74
9187;BME280;7273;48.902;9.410;2023-07-02T09:59:42;97689.31;;;22.16;56.81
9187;BME280;7273;48.902;9.410;2023-07-02T10:02:09;97685.66;;;22.47;56.26
9187;BME280;7273;48.902;9.410;2023-07-02T10:04:45;97684.97;;;22.34;53.12
9187;BME280;7273;48.902;9.410;2023-07-02T10:07:12;97679.34;;;22.66;56.40
9187;BME280;7273;48.902;9.410;2023-07-02T10:09:44;97678.94;;;22.64;55.98
9187;BME280;7273;48.902;9.410;2023-07-02T10:12:19;97667.00;;;22.79;55.29
9187;BME280;7273;48.902;9.410;2023-07-02T10:14:46;97674.78;;;22.54;55.86
9187;BME280;7273;48.902;9.410;2023-07-02T10:17:37;97665.66;;;22.92;54.33
9187;BME280;7273;48.902;9.410;2023-07-02T10:20:04;97667.28;;;22.93;55.94
9187;BME280;7273;48.902;9.410;2023-07-02T10:22:45;97664.50;;;22.93;49.53
9187;BME280;7273;48.902;9.410;2023-07-02T10:25:23;97664.47;;;23.34;55.54
9187;BME280;7273;48.902;9.410;2023-07-02T10:27:48;97666.59;;;22.99;55.23
9187;BME280;7273;48.902;9.410;2023-07-02T10:30:14;97668.47;;;22.95;55.00
9187;BME280;7273;48.902;9.410;2023-07-02T10:32:39;97666.78;;;23.10;54.50
9187;BME280;7273;48.902;9.410;2023-07-02T10:35:17;97663.94;;;23.06;48.61
9187;BME280;7273;48.902;9.410;2023-07-02T10:37:43;97668.75;;;23.09;54.66
9187;BME280;7273;48.902;9.410;2023-07-02T10:40:10;97663.09;;;23.25;54.79
9187;BME280;7273;48.902;9.410;2023-07-02T10:42:49;97661.16;;;23.25;50.05
9187;BME280;7273;48.902;9.410;2023-07-02T10:45:15;97669.50;;;23.51;54.39
9187;BME280;7273;48.902;9.410;2023-07-02T10:47:41;97663.97;;;23.51;54.36
9187;BME280;7273;48.902;9.410;2023-07-02T10:50:19;97655.50;;;23.63;53.29
9187;BME280;7273;48.902;9.410;2023-07-02T10:52:46;97654.00;;;23.96;54.13
9187;BME280;7273;48.902;9.410;2023-07-02T10:55:19;97658.84;;;24.02;53.61
9187;BME280;7273;48.902;9.410;2023-07-02T10:57:44;97649.97;;;24.19;54.35
9187;BME280;7273;48.902;9.410;2023-07-02T11:00:13;97657.41;;;24.12;53.42
9187;BME280;7273;48.902;9.410;2023-07-02T11:02:38;97657.00;;;24.43;54.12
9187;BME280;7273;48.902;9.410;2023-07-02T11:05:05;97652.63;;;24.38;53.48
9187;BME280;7273;48.902;9.410;2023-07-02T11:07:41;97665.63;;;24.38;53.74
9187;BME280;7273;48.902;9.410;2023-07-02T11:10:07;97671.25;;;24.45;52.89
9187;BME280;7273;48.902;9.410;2023-07-02T11:12:34;97660.56;;;24.73;52.87
9187;BME280;7273;48.902;9.410;2023-07-02T11:17:34;97659.56;;;25.32;51.91
9187;BME280;7273;48.902;9.410;2023-07-02T11:20:00;97666.81;;;25.97;51.75
9187;BME280;7273;48.902;9.410;2023-07-02T11:22:36;97668.03;;;26.00;49.18
9187;BME280;7273;48.902;9.410;2023-07-02T11:25:18;97663.13;;;26.44;49.30
9187;BME280;7273;48.902;9.410;2023-07-02T11:27:45;97650.66;;;27.06;50.40
9187;BME280;7273;48.902;9.410;2023-07-02T11:30:11;97655.50;;;27.69;50.67
9187;BME280;7273;48.902;9.410;2023-07-02T11:32:52;97651.91;;;28.00;45.43
9187;BME280;7273;48.902;9.410;2023-07-02T11:35:18;97657.72;;;28.44;50.71
9187;BME280;7273;48.902;9.410;2023-07-02T11:37:44;97653.47;;;28.08;51.18
9187;BME280;7273;48.902;9.410;2023-07-02T11:40:11;97653.78;;;28.35;51.15
9187;BME280;7273;48.902;9.410;2023-07-02T11:42:36;97641.66;;;28.83;50.92
9187;BME280;7273;48.902;9.410;2023-07-02T11:45:03;97644.72;;;29.03;50.86
9187;BME280;7273;48.902;9.410;2023-07-02T11:47:28;97637.63;;;28.91;50.83
9187;BME280;7273;48.902;9.410;2023-07-02T11:49:54;97647.38;;;28.48;51.60
9187;BME280;7273;48.902;9.410;2023-07-02T11:52:25;97648.84;;;29.46;50.83
9187;BME280;7273;48.902;9.410;2023-07-02T11:54:50;97654.03;;;29.44;51.21
9187;BME280;7273;48.902;9.410;2023-07-02T11:57:16;97640.25;;;28.37;51.86
9187;BME280;7273;48.902;9.410;2023-07-02T11:59:42;97649.53;;;27.49;51.74
9187;BME280;7273;48.902;9.410;2023-07-02T12:02:07;97641.56;;;27.83;51.90
9187;BME280;7273;48.902;9.410;2023-07-02T12:04:33;97638.78;;;27.76;51.28
9187;BME280;7273;48.902;9.410;2023-07-02T12:06:59;97626.50;;;27.81;51.38
9187;BME280;7273;48.902;9.410;2023-07-02T12:09:26;97634.31;;;28.31;50.95
9187;BME280;7273;48.902;9.410;2023-07-02T12:11:53;97635.00;;;28.63;50.44
9187;BME280;7273;48.902;9.410;2023-07-02T12:14:18;97635.28;;;28.86;50.18
9187;BME280;7273;48.902;9.410;2023-07-02T12:16:44;97632.00;;;29.02;50.22
9187;BME280;7273;48.902;9.410;2023-07-02T12:19:09;97620.31;;;29.28;50.42
9187;BME280;7273;48.902;9.410;2023-07-02T12:21:35;97638.09;;;28.79;50.65
9187;BME280;7273;48.902;9.410;2023-07-02T12:24:02;97634.03;;;27.87;50.41
9187;BME280;7273;48.902;9.410;2023-07-02T12:26:27;97638.41;;;27.63;49.87
9187;BME280;7273;48.902;9.410;2023-07-02T12:28:54;97633.66;;;27.43;49.65
9187;BME280;7273;48.902;9.410;2023-07-02T12:31:19;97641.56;;;27.16;49.22
9187;BME280;7273;48.902;9.410;2023-07-02T12:33:45;97637.19;;;27.22;49.04
9187;BME280;7273;48.902;9.410;2023-07-02T12:36:11;97629.69;;;27.51;48.37
9187;BME280;7273;48.902;9.410;2023-07-02T12:38:36;97630.47;;;27.55;48.31
9187;BME280;7273;48.902;9.410;2023-07-02T12:41:01;97632.44;;;27.09;47.79
9187;BME280;7273;48.902;9.410;2023-07-02T12:43:27;97635.19;;;27.16;47.58
9187;BME280;7273;48.902;9.410;2023-07-02T12:45:52;97624.13;;;27.47;47.14
9187;BME280;7273;48.902;9.410;2023-07-02T12:48:18;97624.16;;;27.33;47.42
9187;BME280;7273;48.902;9.410;2023-07-02T12:50:56;97628.78;;;26.73;41.16
9187;BME280;7273;48.902;9.410;2023-07-02T12:53:23;97630.41;;;26.88;46.31
9187;BME280;7273;48.902;9.410;2023-07-02T12:55:53;97625.63;;;26.85;46.21
9187;BME280;7273;48.902;9.410;2023-07-02T12:58:18;97622.84;;;26.71;46.03
9187;BME280;7273;48.902;9.410;2023-07-02T13:00:45;97640.16;;;26.51;45.68
9187;BME280;7273;48.902;9.410;2023-07-02T13:03:12;97628.59;;;26.31;45.72
9187;BME280;7273;48.902;9.410;2023-07-02T13:05:37;97633.88;;;26.61;45.53
9187;BME280;7273;48.902;9.410;2023-07-02T13:08:03;97616.81;;;26.52;45.60
9187;BME280;7273;48.902;9.410;2023-07-02T13:10:30;97615.94;;;26.37;44.92
9187;BME280;7273;48.902;9.410;2023-07-02T13:12:56;97621.94;;;26.46;44.90
9187;BME280;7273;48.902;9.410;2023-07-02T13:15:22;97618.69;;;26.26;45.00
9187;BME280;7273;48.902;9.410;2023-07-02T13:17:47;97616.81;;;26.59;44.91
9187;BME280;7273;48.902;9.410;2023-07-02T13:20:12;97621.66;;;26.72;44.88
9187;BME280;7273;48.902;9.410;2023-07-02T13:22:38;97617.66;;;26.70;44.71
9187;BME280;7273;48.902;9.410;2023-07-02T13:25:04;97615.31;;;26.79;44.63